Time;durP1;ratioP1;P1;durP2;ratioP2;P2;SDS_P1;SDS_P2;PMS_P1;PMS_P2;Temp;Humidity;BMP_temperature;BMP_pressure;BME280_temperature;BME280_humidity;BME280_pressure;Samples;Min_cycle;Max_cycle;Signal;HPM_P1;HPM_P2
2023/10/30 00:01:49;;;;;;;;;;;;;;;21.02;47.14;94700.91;10486079;28;2711;-57
2023/10/30 00:06:50;;;;;;;;;;;;;;;21.01;47.23;94707.25;10476669;28;2618;-56
2023/10/30 00:11:50;;;;;;;;;;;;;;;20.98;47.61;94705.22;10486062;28;2708;-57
2023/10/30 00:16:50;;;;;;;;;;;;;;;20.97;47.02;94706.31;10479070;28;2586;-57
2023/10/30 00:21:50;;;;;;;;;;;;;;;20.98;47.24;94713.09;10481423;28;2777;-56
2023/10/30 00:26:51;;;;;;;;;;;;;;;20.97;47.38;94716.06;10481469;28;2570;-56
2023/10/30 00:31:51;;;;;;;;;;;;;;;20.95;47.19;94721.63;10485943;28;2626;-58
2023/10/30 00:36:51;;;;;;;;;;;;;;;20.94;47.20;94725.31;10477043;28;2581;-56
2023/10/30 00:41:51;;;;;;;;;;;;;;;20.93;47.44;94723.78;10481252;28;2615;-58
2023/10/30 00:46:53;;;;;;;;;;;;;;;20.91;46.81;94723.31;10475421;28;2571;-57
2023/10/30 00:51:53;;;;;;;;;;;;;;;20.91;47.21;94728.56;10471291;28;4676;-55
2023/10/30 00:56:53;;;;;;;;;;;;;;;20.88;47.00;94731.78;10476399;28;2587;-57
2023/10/30 01:01:53;;;;;;;;;;;;;;;20.89;46.86;94733.38;10468473;28;2666;-56
2023/10/30 01:06:54;;;;;;;;;;;;;;;20.87;46.90;94727.63;10479719;28;2803;-56
2023/10/30 01:11:54;;;;;;;;;;;;;;;20.85;46.91;94724.50;10475741;28;2588;-57
2023/10/30 01:16:54;;;;;;;;;;;;;;;20.86;46.83;94717.34;10480416;28;2681;-56
2023/10/30 01:21:55;;;;;;;;;;;;;;;20.84;46.91;94707.13;10480915;28;2680;-57
2023/10/30 01:26:55;;;;;;;;;;;;;;;20.83;47.07;94707.44;10481203;28;2572;-57
2023/10/30 01:31:55;;;;;;;;;;;;;;;20.83;46.97;94715.34;10487806;28;2579;-57
2023/10/30 01:36:56;;;;;;;;;;;;;;;20.82;46.73;94726.94;10471053;28;2534;-57
2023/10/30 01:41:56;;;;;;;;;;;;;;;20.80;46.74;94714.06;10463998;28;2527;-57
2023/10/30 01:46:56;;;;;;;;;;;;;;;20.80;46.63;94708.03;10468577;28;2711;-56
2023/10/30 01:51:59;;;;;;;;;;;;;;;20.78;46.87;94718.88;10471843;28;4780;-57
2023/10/30 01:56:59;;;;;;;;;;;;;;;20.78;46.58;94724.13;10479432;28;2670;-56
2023/10/30 02:01:59;;;;;;;;;;;;;;;20.77;46.60;94709.41;10473965;28;2555;-57
2023/10/30 02:07:00;;;;;;;;;;;;;;;20.75;46.58;94708.16;10444905;28;2705;-55
2023/10/30 02:12:00;;;;;;;;;;;;;;;20.74;46.93;94707.38;10471145;28;2629;-57
2023/10/30 02:17:01;;;;;;;;;;;;;;;20.72;46.86;94696.38;10472971;28;2688;-56
2023/10/30 02:22:01;;;;;;;;;;;;;;;20.72;46.46;94693.72;10478023;28;2721;-57
2023/10/30 02:27:02;;;;;;;;;;;;;;;20.72;46.72;94679.78;10479051;28;2587;-55
2023/10/30 02:32:02;;;;;;;;;;;;;;;20.71;46.82;94699.31;10470858;28;2587;-57
2023/10/30 02:37:02;;;;;;;;;;;;;;;20.70;46.97;94709.06;10468192;28;2619;-57
2023/10/30 02:42:04;;;;;;;;;;;;;;;20.68;46.44;94698.03;10479924;28;2709;-56
2023/10/30 02:47:04;;;;;;;;;;;;;;;20.67;46.51;94695.72;10470309;28;2675;-56
2023/10/30 02:52:04;;;;;;;;;;;;;;;20.66;46.68;94700.19;10474870;28;4712;-56
2023/10/30 02:57:05;;;;;;;;;;;;;;;20.66;46.69;94709.94;10470099;28;2647;-57
2023/10/30 03:02:05;;;;;;;;;;;;;;;20.65;46.33;94714.41;10477265;28;2555;-57
2023/10/30 03:07:05;;;;;;;;;;;;;;;20.64;46.60;94714.72;10459387;28;2632;-54
2023/10/30 03:12:06;;;;;;;;;;;;;;;20.65;46.74;94719.69;10459320;28;2612;-58
2023/10/30 03:17:06;;;;;;;;;;;;;;;20.62;46.50;94724.78;10492581;28;2590;-56
2023/10/30 03:22:06;;;;;;;;;;;;;;;20.62;46.42;94715.03;10474045;28;2598;-58
2023/10/30 03:27:06;;;;;;;;;;;;;;;20.60;46.57;94706.66;10464937;28;2594;-55
2023/10/30 03:32:07;;;;;;;;;;;;;;;20.59;46.52;94715.63;10473202;28;2551;-57
2023/10/30 03:37:07;;;;;;;;;;;;;;;20.59;46.47;94715.63;10470380;28;2972;-57
2023/10/30 03:42:07;;;;;;;;;;;;;;;20.59;46.58;94715.63;10463902;28;2539;-57
2023/10/30 03:47:08;;;;;;;;;;;;;;;20.58;46.37;94723.81;10479125;28;2522;-56
2023/10/30 03:52:08;;;;;;;;;;;;;;;20.56;46.35;94718.84;10483606;28;4684;-55
2023/10/30 03:57:08;;;;;;;;;;;;;;;20.56;46.68;94729.38;10499672;28;2650;-57
2023/10/30 04:02:09;;;;;;;;;;;;;;;20.56;46.51;94731.25;10471399;28;2588;-57
2023/10/30 04:07:09;;;;;;;;;;;;;;;20.53;46.37;94722.06;10485267;28;2571;-55
2023/10/30 04:12:09;;;;;;;;;;;;;;;20.54;46.47;94728.91;10479807;28;2607;-56
2023/10/30 04:17:09;;;;;;;;;;;;;;;20.52;46.54;94720.53;10479594;28;2662;-56
2023/10/30 04:22:10;;;;;;;;;;;;;;;20.52;46.30;94731.06;10483560;28;2546;-56
2023/10/30 04:27:10;;;;;;;;;;;;;;;20.51;46.34;94705.00;10474879;28;2675;-56
2023/10/30 04:32:10;;;;;;;;;;;;;;;20.50;46.41;94703.47;10484830;28;2582;-56
2023/10/30 04:37:11;;;;;;;;;;;;;;;20.50;46.25;94706.09;10461238;28;2571;-58
2023/10/30 04:42:11;;;;;;;;;;;;;;;20.49;46.13;94701.91;10466345;28;2605;-56
2023/10/30 04:47:11;;;;;;;;;;;;;;;20.48;46.15;94693.25;10482228;28;2713;-57
2023/10/30 04:52:11;;;;;;;;;;;;;;;20.47;46.33;94691.69;10471779;28;4704;-57
2023/10/30 04:57:12;;;;;;;;;;;;;;;20.47;46.01;94689.03;10482745;28;2563;-56
2023/10/30 05:02:12;;;;;;;;;;;;;;;20.46;46.11;94676.19;10475904;28;2563;-57
2023/10/30 05:07:13;;;;;;;;;;;;;;;20.45;46.04;94672.75;10485926;28;2517;-57
2023/10/30 05:12:13;;;;;;;;;;;;;;;20.48;46.41;94680.09;10475914;28;2586;-56
2023/10/30 05:17:13;;;;;;;;;;;;;;;20.54;45.51;94671.00;10480976;28;2613;-56
2023/10/30 05:22:13;;;;;;;;;;;;;;;20.58;45.38;94669.31;10477135;28;2582;-57
2023/10/30 05:27:14;;;;;;;;;;;;;;;20.64;45.49;94665.47;10462365;28;2607;-57
2023/10/30 05:32:14;;;;;;;;;;;;;;;20.70;44.87;94663.50;10466572;28;2598;-57
2023/10/30 05:37:15;;;;;;;;;;;;;;;20.74;45.09;94665.25;10477834;28;2627;-56
2023/10/30 05:42:15;;;;;;;;;;;;;;;20.78;45.08;94660.94;10477581;28;2592;-57
2023/10/30 05:47:16;;;;;;;;;;;;;;;20.83;44.94;94652.13;10471295;28;2657;-58
2023/10/30 05:52:16;;;;;;;;;;;;;;;20.86;44.91;94657.56;10473357;28;4645;-57
2023/10/30 05:57:17;;;;;;;;;;;;;;;20.90;44.79;94665.63;10476811;28;2651;-57
2023/10/30 06:02:17;;;;;;;;;;;;;;;20.94;44.45;94662.09;10473545;28;2699;-56
2023/10/30 06:07:17;;;;;;;;;;;;;;;20.98;44.77;94683.34;10472885;28;2624;-55
2023/10/30 06:12:17;;;;;;;;;;;;;;;21.00;44.47;94679.34;10469220;28;2672;-55
2023/10/30 06:17:18;;;;;;;;;;;;;;;21.04;44.26;94682.19;10473836;28;2616;-57
2023/10/30 06:22:18;;;;;;;;;;;;;;;21.07;44.38;94681.56;10471830;28;2785;-58
2023/10/30 06:27:19;;;;;;;;;;;;;;;21.12;43.91;94680.69;10478435;28;2694;-56
2023/10/30 06:32:19;;;;;;;;;;;;;;;21.13;44.05;94690.13;10476980;28;2717;-56
2023/10/30 06:37:19;;;;;;;;;;;;;;;21.14;44.25;94679.31;10480053;28;2568;-57
2023/10/30 06:42:20;;;;;;;;;;;;;;;21.17;43.92;94683.16;10480828;28;2570;-57
2023/10/30 06:47:20;;;;;;;;;;;;;;;21.19;44.07;94691.56;10475815;28;2741;-57
2023/10/30 06:52:20;;;;;;;;;;;;;;;21.27;43.79;94690.84;10473585;28;2588;-55
2023/10/30 06:57:21;;;;;;;;;;;;;;;21.26;43.75;94684.00;10453399;28;2597;-57
2023/10/30 07:02:21;;;;;;;;;;;;;;;21.31;43.91;94691.78;10474057;28;2591;-57
2023/10/30 07:07:21;;;;;;;;;;;;;;;21.33;43.63;94690.38;10475172;28;2629;-57
2023/10/30 07:12:21;;;;;;;;;;;;;;;21.42;43.43;94691.22;10477064;28;2512;-56
2023/10/30 07:17:22;;;;;;;;;;;;;;;21.43;43.86;94689.38;10473385;28;2563;-57
2023/10/30 07:22:22;;;;;;;;;;;;;;;21.38;43.99;94694.75;10486503;28;2622;-56
2023/10/30 07:27:22;;;;;;;;;;;;;;;21.43;43.57;94692.75;10483861;28;2546;-57
2023/10/30 07:32:23;;;;;;;;;;;;;;;21.53;42.96;94681.97;10484908;28;2597;-56
2023/10/30 07:37:23;;;;;;;;;;;;;;;21.55;43.04;94673.75;10483704;28;2766;-55
2023/10/30 07:42:23;;;;;;;;;;;;;;;21.52;43.42;94672.47;10481787;28;2655;-57
2023/10/30 07:47:23;;;;;;;;;;;;;;;21.50;43.88;94665.97;10481643;28;2587;-56
2023/10/30 07:52:24;;;;;;;;;;;;;;;21.56;43.71;94654.19;10474936;28;4629;-56
2023/10/30 07:57:24;;;;;;;;;;;;;;;21.54;44.08;94656.34;10479255;28;2657;-56
2023/10/30 08:02:25;;;;;;;;;;;;;;;21.61;44.03;94654.84;10467356;28;2654;-56
2023/10/30 08:07:25;;;;;;;;;;;;;;;21.60;44.14;94628.75;10475663;28;2647;-57
2023/10/30 08:12:25;;;;;;;;;;;;;;;21.61;44.03;94632.97;10477548;28;2542;-55
2023/10/30 08:17:26;;;;;;;;;;;;;;;21.57;44.49;94624.91;10468446;28;2545;-56
2023/10/30 08:22:26;;;;;;;;;;;;;;;21.57;44.71;94619.63;10465908;28;2592;-57
2023/10/30 08:27:27;;;;;;;;;;;;;;;21.57;44.59;94632.81;10473489;28;2591;-55
2023/10/30 08:32:27;;;;;;;;;;;;;;;21.58;45.11;94623.00;10461445;28;2605;-58
2023/10/30 08:37:28;;;;;;;;;;;;;;;21.59;45.26;94611.41;10473948;28;2596;-58
2023/10/30 08:42:28;;;;;;;;;;;;;;;21.58;44.82;94615.88;10458569;28;2667;-59
2023/10/30 08:47:28;;;;;;;;;;;;;;;21.58;44.67;94615.09;10472031;28;2587;-57
2023/10/30 08:52:29;;;;;;;;;;;;;;;21.57;45.00;94632.03;10479707;28;4668;-58
2023/10/30 08:57:29;;;;;;;;;;;;;;;21.57;44.77;94624.91;10456610;28;2639;-58
2023/10/30 09:02:29;;;;;;;;;;;;;;;21.57;45.45;94616.19;10473437;28;2742;-59
2023/10/30 09:07:29;;;;;;;;;;;;;;;21.56;45.10;94602.22;10453977;28;2678;-59
2023/10/30 09:12:30;;;;;;;;;;;;;;;21.56;45.21;94598.81;10474601;28;2527;-58
2023/10/30 09:17:30;;;;;;;;;;;;;;;21.54;45.36;94593.84;10474199;28;2608;-58
2023/10/30 09:22:32;;;;;;;;;;;;;;;21.55;45.07;94584.88;10474142;28;2570;-58
2023/10/30 09:27:33;;;;;;;;;;;;;;;21.53;45.92;94573.06;10474849;28;2663;-59
2023/10/30 09:32:33;;;;;;;;;;;;;;;21.49;45.98;94572.91;10453514;28;2545;-57
2023/10/30 09:37:33;;;;;;;;;;;;;;;21.47;46.02;94567.19;10472620;28;2639;-59
2023/10/30 09:42:34;;;;;;;;;;;;;;;21.47;45.62;94577.72;10471696;28;2562;-58
2023/10/30 09:47:34;;;;;;;;;;;;;;;21.46;45.87;94564.81;10473116;28;3096;-58
2023/10/30 09:52:35;;;;;;;;;;;;;;;21.42;46.29;94554.13;10470832;28;4759;-58
2023/10/30 09:57:35;;;;;;;;;;;;;;;21.43;46.38;94552.28;10448455;28;2649;-58
2023/10/30 10:02:35;;;;;;;;;;;;;;;21.44;46.04;94528.22;10466140;28;2706;-58
2023/10/30 10:07:36;;;;;;;;;;;;;;;21.41;46.35;94515.66;10455552;28;2640;-57
2023/10/30 10:12:36;;;;;;;;;;;;;;;21.41;46.41;94504.34;10486286;28;2553;-58
2023/10/30 10:17:44;;;;;;;;;;;;;;;21.41;46.42;94497.19;10486218;28;2639;-59
2023/10/30 10:22:44;;;;;;;;;;;;;;;21.38;46.87;94476.75;10467438;28;2742;-59
2023/10/30 10:27:45;;;;;;;;;;;;;;;21.39;46.38;94480.91;10457294;28;2768;-58
2023/10/30 10:32:45;;;;;;;;;;;;;;;21.38;46.63;94473.31;10471550;28;2544;-58
2023/10/30 10:37:48;;;;;;;;;;;;;;;21.35;46.55;94479.97;10469844;28;3081;-59
2023/10/30 10:42:50;;;;;;;;;;;;;;;21.34;46.61;94477.66;10469867;28;2603;-58
2023/10/30 10:47:52;;;;;;;;;;;;;;;21.33;46.65;94460.31;10475408;28;4805;-58
2023/10/30 10:52:53;;;;;;;;;;;;;;;21.32;46.74;94437.66;10458753;28;2634;-59
2023/10/30 10:57:58;;;;;;;;;;;;;;;21.31;46.77;94446.66;10476133;28;6291;-58
2023/10/30 11:03:01;;;;;;;;;;;;;;;21.29;46.77;94446.19;10469379;28;5431;-58
2023/10/30 11:08:06;;;;;;;;;;;;;;;21.26;47.12;94431.00;10477505;28;5420;-58
2023/10/30 11:13:13;;;;;;;;;;;;;;;21.24;46.92;94428.66;10481166;28;5436;-58
2023/10/30 11:18:14;;;;;;;;;;;;;;;21.25;46.76;94403.06;10479946;28;5336;-59
2023/10/30 11:23:34;;;;;;;;;;;;;;;21.24;46.62;94388.34;10487461;28;2532;-58
2023/10/30 11:28:36;;;;;;;;;;;;;;;21.22;46.29;94377.34;10488108;28;2531;-58
2023/10/30 11:33:36;;;;;;;;;;;;;;;21.18;46.55;94368.50;10459378;28;2634;-58
2023/10/30 11:38:46;;;;;;;;;;;;;;;21.16;46.65;94365.41;10462243;28;5154;-57
2023/10/30 11:43:46;;;;;;;;;;;;;;;21.16;46.64;94349.59;10483983;28;2528;-57
2023/10/30 11:48:48;;;;;;;;;;;;;;;21.13;46.99;94355.47;10472461;28;2547;-58
2023/10/30 11:53:48;;;;;;;;;;;;;;;21.11;46.88;94352.38;10478741;28;2530;-58
2023/10/30 11:58:48;;;;;;;;;;;;;;;21.11;46.78;94336.56;10452099;28;2627;-59
2023/10/30 12:03:48;;;;;;;;;;;;;;;21.08;46.92;94328.19;10451979;28;2612;-58
2023/10/30 12:08:51;;;;;;;;;;;;;;;21.06;46.73;94319.84;10474487;28;5140;-58
2023/10/30 12:13:51;;;;;;;;;;;;;;;21.03;46.77;94323.09;10464566;28;2651;-57
2023/10/30 12:18:51;;;;;;;;;;;;;;;21.01;47.10;94313.94;10479254;28;2542;-57
2023/10/30 12:23:52;;;;;;;;;;;;;;;20.99;46.88;94306.34;10465343;28;2715;-57
2023/10/30 12:28:56;;;;;;;;;;;;;;;20.97;46.84;94311.16;10471037;28;2532;-58
2023/10/30 12:34:06;;;;;;;;;;;;;;;20.97;46.95;94300.59;10486244;28;2587;-57
2023/10/30 12:39:26;;;;;;;;;;;;;;;20.96;46.70;94291.13;10467167;28;2497;-58
2023/10/30 12:44:27;;;;;;;;;;;;;;;20.92;46.95;94277.03;10480551;28;2678;-58
2023/10/30 12:49:28;;;;;;;;;;;;;;;20.92;46.73;94277.03;10477806;28;2750;-55
2023/10/30 12:54:28;;;;;;;;;;;;;;;20.90;46.67;94268.69;10468041;28;2669;-55
2023/10/30 12:59:29;;;;;;;;;;;;;;;20.89;46.77;94261.88;10476235;28;2646;-56
2023/10/30 13:04:29;;;;;;;;;;;;;;;20.89;46.85;94253.97;10474836;28;2664;-58
2023/10/30 13:09:32;;;;;;;;;;;;;;;20.87;46.71;94240.34;10483130;28;5136;-58
2023/10/30 13:14:32;;;;;;;;;;;;;;;20.86;46.61;94228.25;10480547;28;2670;-56
2023/10/30 13:19:32;;;;;;;;;;;;;;;20.85;46.80;94224.06;10478021;28;2702;-58
2023/10/30 13:24:33;;;;;;;;;;;;;;;20.84;46.74;94248.06;10476417;28;2651;-57
2023/10/30 13:29:34;;;;;;;;;;;;;;;20.83;46.54;94263.13;10479938;28;2567;-58
2023/10/30 13:34:35;;;;;;;;;;;;;;;20.85;46.31;94254.91;10455845;28;2615;-56
2023/10/30 13:39:37;;;;;;;;;;;;;;;20.82;46.76;94203.63;10472450;28;2558;-58
2023/10/30 13:44:37;;;;;;;;;;;;;;;20.80;46.62;94181.31;10478672;28;2543;-58
2023/10/30 13:49:37;;;;;;;;;;;;;;;20.79;46.89;94191.06;10461346;28;2622;-58
2023/10/30 13:54:38;;;;;;;;;;;;;;;20.78;46.42;94221.13;10476607;28;2558;-57
2023/10/30 13:59:38;;;;;;;;;;;;;;;20.77;46.60;94208.28;10476838;28;2584;-57
2023/10/30 14:04:38;;;;;;;;;;;;;;;20.76;46.71;94183.00;10475606;28;2843;-58
2023/10/30 14:09:38;;;;;;;;;;;;;;;20.74;46.54;94175.44;10471243;28;5093;-58
2023/10/30 14:14:38;;;;;;;;;;;;;;;20.74;46.48;94191.25;10446669;28;2563;-58
2023/10/30 14:19:41;;;;;;;;;;;;;;;20.72;46.41;94190.00;10480723;28;2648;-58
2023/10/30 14:24:41;;;;;;;;;;;;;;;20.74;46.21;94190.44;10461344;28;2750;-58
2023/10/30 14:29:42;;;;;;;;;;;;;;;20.72;46.28;94188.13;10486765;28;2694;-57
2023/10/30 14:34:42;;;;;;;;;;;;;;;20.72;46.09;94185.50;10478918;28;2526;-58
2023/10/30 14:39:43;;;;;;;;;;;;;;;20.70;46.65;94163.97;10484125;28;3114;-58
2023/10/30 14:44:43;;;;;;;;;;;;;;;20.72;46.60;94158.41;10475310;28;2574;-58
2023/10/30 14:49:43;;;;;;;;;;;;;;;20.73;46.12;94144.91;10472073;28;2688;-56
2023/10/30 14:54:43;;;;;;;;;;;;;;;20.78;46.01;94121.06;10463731;28;2636;-58
2023/10/30 14:59:46;;;;;;;;;;;;;;;20.84;45.46;94116.38;10443503;28;2668;-57
2023/10/30 15:04:46;;;;;;;;;;;;;;;20.87;45.49;94113.13;10457084;28;2607;-58
2023/10/30 15:09:47;;;;;;;;;;;;;;;20.88;45.54;94097.03;10471368;28;5493;-57
2023/10/30 15:14:47;;;;;;;;;;;;;;;20.94;45.69;94100.25;10462400;28;2692;-55
2023/10/30 15:19:47;;;;;;;;;;;;;;;20.98;45.68;94096.66;10473200;28;2626;-58
2023/10/30 15:24:48;;;;;;;;;;;;;;;21.02;45.71;94097.63;10459750;28;2653;-58
2023/10/30 15:29:48;;;;;;;;;;;;;;;21.04;45.63;94098.06;10451631;28;2680;-57
2023/10/30 15:34:48;;;;;;;;;;;;;;;21.10;45.60;94100.56;10475150;28;2659;-56
2023/10/30 15:39:48;;;;;;;;;;;;;;;21.12;45.67;94082.56;10484751;28;2764;-58
2023/10/30 15:44:49;;;;;;;;;;;;;;;21.15;45.67;94079.28;10474670;28;2605;-57
2023/10/30 15:49:49;;;;;;;;;;;;;;;21.16;45.40;94073.72;10476708;28;2604;-57
2023/10/30 15:54:49;;;;;;;;;;;;;;;21.20;45.44;94066.72;10480376;28;2666;-57
2023/10/30 15:59:50;;;;;;;;;;;;;;;21.23;45.46;94049.47;10445655;28;2631;-58
2023/10/30 16:04:50;;;;;;;;;;;;;;;21.27;45.19;94037.25;10476358;28;2631;-57
2023/10/30 16:09:50;;;;;;;;;;;;;;;21.28;45.10;94031.66;10470539;28;5337;-57
2023/10/30 16:14:53;;;;;;;;;;;;;;;21.30;45.16;94028.69;10475682;28;2602;-57
2023/10/30 16:19:55;;;;;;;;;;;;;;;21.35;44.75;94013.44;10478374;28;2603;-58
2023/10/30 16:24:55;;;;;;;;;;;;;;;21.42;44.72;94002.41;10476576;28;2603;-57
2023/10/30 16:29:56;;;;;;;;;;;;;;;21.51;44.66;93995.22;10477386;28;2579;-57
2023/10/30 16:34:56;;;;;;;;;;;;;;;21.45;44.94;93999.88;10482763;28;2912;-57
2023/10/30 16:39:57;;;;;;;;;;;;;;;21.50;44.69;93975.22;10461110;28;2637;-57
2023/10/30 16:44:57;;;;;;;;;;;;;;;21.56;44.37;93952.84;10479789;28;2551;-58
2023/10/30 16:49:57;;;;;;;;;;;;;;;21.54;44.40;93955.03;10454439;28;2653;-58
2023/10/30 16:54:58;;;;;;;;;;;;;;;21.57;44.29;93976.25;10452833;28;3038;-57
2023/10/30 16:59:58;;;;;;;;;;;;;;;21.61;44.21;93979.00;10482325;28;2563;-58
2023/10/30 17:04:59;;;;;;;;;;;;;;;21.58;44.40;93969.88;10445900;28;2642;-58
2023/10/30 17:09:59;;;;;;;;;;;;;;;21.61;44.20;93965.84;10479895;28;5118;-58
2023/10/30 17:14:59;;;;;;;;;;;;;;;21.62;44.02;93956.81;10478481;28;2611;-58
2023/10/30 17:19:59;;;;;;;;;;;;;;;21.59;44.47;93941.66;10473333;28;2679;-57
2023/10/30 17:25:00;;;;;;;;;;;;;;;21.57;44.56;93938.56;10478441;28;2630;-58
2023/10/30 17:30:00;;;;;;;;;;;;;;;21.64;44.40;93944.84;10470649;28;2681;-56
2023/10/30 17:35:01;;;;;;;;;;;;;;;21.67;44.14;93919.72;10454144;28;2571;-58
2023/10/30 17:40:01;;;;;;;;;;;;;;;21.66;44.71;93921.56;10472116;28;2551;-55
2023/10/30 17:45:04;;;;;;;;;;;;;;;21.70;44.78;93916.44;10463978;28;2551;-58
2023/10/30 17:50:04;;;;;;;;;;;;;;;21.75;44.86;93897.75;10463084;28;2520;-56
2023/10/30 17:55:06;;;;;;;;;;;;;;;21.78;44.71;93897.88;10481079;28;2583;-58
2023/10/30 18:00:07;;;;;;;;;;;;;;;21.81;44.23;93880.63;10470807;28;2682;-58
2023/10/30 18:05:07;;;;;;;;;;;;;;;21.82;44.20;93869.03;10465384;28;2686;-59
2023/10/30 18:10:08;;;;;;;;;;;;;;;21.84;44.50;93851.03;10458673;28;5217;-58
2023/10/30 18:15:08;;;;;;;;;;;;;;;21.88;44.11;93836.09;10471198;28;2614;-58
2023/10/30 18:20:08;;;;;;;;;;;;;;;21.91;44.34;93810.91;10475744;28;2577;-58
2023/10/30 18:25:09;;;;;;;;;;;;;;;21.94;44.78;93810.25;10481058;28;2567;-59
2023/10/30 18:30:12;;;;;;;;;;;;;;;21.92;45.05;93792.13;10490248;28;2578;-57
2023/10/30 18:35:12;;;;;;;;;;;;;;;21.91;45.25;93789.81;10476016;28;2668;-59
2023/10/30 18:40:12;;;;;;;;;;;;;;;21.90;45.29;93777.72;10473003;28;2536;-56
2023/10/30 18:45:13;;;;;;;;;;;;;;;21.86;45.32;93762.53;10474841;28;2676;-55
2023/10/30 18:50:13;;;;;;;;;;;;;;;21.84;45.27;93769.25;10465604;28;2650;-56
2023/10/30 18:55:13;;;;;;;;;;;;;;;21.82;45.30;93745.81;10470310;28;2630;-57
2023/10/30 19:00:14;;;;;;;;;;;;;;;21.82;45.50;93750.34;10479846;28;1974;-53
2023/10/30 19:05:14;;;;;;;;;;;;;;;21.80;45.38;93745.34;10475738;28;2425;-58
2023/10/30 19:10:14;;;;;;;;;;;;;;;21.83;45.35;93728.13;10463673;28;5229;-56
2023/10/30 19:15:17;;;;;;;;;;;;;;;21.84;44.98;93741.00;10484259;28;2061;-58
2023/10/30 19:20:17;;;;;;;;;;;;;;;21.86;44.80;93751.97;10482102;28;1448;-57
2023/10/30 19:25:17;;;;;;;;;;;;;;;21.85;45.04;93755.72;10485625;28;1500;-58
2023/10/30 19:30:18;;;;;;;;;;;;;;;21.84;44.82;93758.72;10484496;28;2483;-60
2023/10/30 19:35:18;;;;;;;;;;;;;;;21.86;44.79;93756.50;10475779;28;1977;-59
2023/10/30 19:40:18;;;;;;;;;;;;;;;21.84;44.63;93756.06;10488424;28;1506;-58
2023/10/30 19:45:18;;;;;;;;;;;;;;;21.86;44.54;93765.16;10467434;28;1895;-59
2023/10/30 19:50:19;;;;;;;;;;;;;;;21.85;44.54;93774.19;10477086;28;2170;-58
2023/10/30 19:55:19;;;;;;;;;;;;;;;21.88;44.22;93828.91;10466942;28;1972;-58
2023/10/30 20:00:20;;;;;;;;;;;;;;;21.91;44.08;93843.31;10472755;28;1967;-58
2023/10/30 20:05:20;;;;;;;;;;;;;;;21.92;44.27;93871.25;10458881;28;1743;-58
2023/10/30 20:10:20;;;;;;;;;;;;;;;21.93;44.08;93872.78;10476475;28;5440;-58
2023/10/30 20:15:20;;;;;;;;;;;;;;;21.94;43.99;93887.53;10481684;28;2450;-57
2023/10/30 20:20:21;;;;;;;;;;;;;;;21.94;43.92;93915.78;10476573;28;1637;-57
2023/10/30 20:25:23;;;;;;;;;;;;;;;21.96;43.82;93927.53;10481986;28;1772;-58
2023/10/30 20:30:25;;;;;;;;;;;;;;;21.96;43.76;93956.56;10467926;28;2016;-58
2023/10/30 20:35:26;;;;;;;;;;;;;;;21.98;43.76;93962.28;10482852;28;1986;-57
2023/10/30 20:40:26;;;;;;;;;;;;;;;21.98;44.03;93985.25;10483955;28;2590;-57
2023/10/30 20:45:27;;;;;;;;;;;;;;;21.99;43.89;93998.13;10474845;28;2654;-57
2023/10/30 20:50:29;;;;;;;;;;;;;;;21.99;43.93;93995.47;10476006;28;2551;-57
2023/10/30 20:55:30;;;;;;;;;;;;;;;21.99;43.71;94013.94;10471190;28;2697;-56
2023/10/30 21:00:31;;;;;;;;;;;;;;;22.01;43.50;94030.22;10483877;28;2673;-58
2023/10/30 21:05:31;;;;;;;;;;;;;;;22.01;43.50;94037.38;10481706;28;2685;-57
2023/10/30 21:10:31;;;;;;;;;;;;;;;21.98;43.81;94028.25;10481637;28;5066;-56
2023/10/30 21:15:31;;;;;;;;;;;;;;;21.96;43.89;94004.06;10475765;28;3010;-57
2023/10/30 21:20:32;;;;;;;;;;;;;;;21.94;43.79;94013.38;10470822;28;2622;-57
2023/10/30 21:25:32;;;;;;;;;;;;;;;21.95;43.98;94023.59;10463634;28;2655;-56
2023/10/30 21:30:33;;;;;;;;;;;;;;;21.93;44.01;94027.69;10468599;28;2567;-58
2023/10/30 21:35:33;;;;;;;;;;;;;;;21.92;43.87;94055.13;10468938;28;2793;-59
2023/10/30 21:40:36;;;;;;;;;;;;;;;21.89;44.45;94051.28;10475404;28;2606;-58
2023/10/30 21:45:38;;;;;;;;;;;;;;;21.88;44.04;94044.47;10471170;28;2551;-56
2023/10/30 21:50:38;;;;;;;;;;;;;;;21.87;44.12;94042.91;10470450;28;2690;-58
2023/10/30 21:55:39;;;;;;;;;;;;;;;21.89;43.35;94061.81;10475476;28;2736;-58
2023/10/30 22:00:39;;;;;;;;;;;;;;;21.87;43.77;94074.56;10470797;28;2663;-56
2023/10/30 22:05:39;;;;;;;;;;;;;;;21.80;43.88;94074.28;10470132;28;2555;-58
2023/10/30 22:10:40;;;;;;;;;;;;;;;21.75;43.73;94083.16;10481497;28;2607;-57
2023/10/30 22:15:41;;;;;;;;;;;;;;;21.68;43.77;94082.88;10473529;28;2876;-57
2023/10/30 22:20:41;;;;;;;;;;;;;;;21.64;44.03;94092.53;10472104;28;2659;-57
2023/10/30 22:25:42;;;;;;;;;;;;;;;21.60;43.71;94094.25;10472776;28;2614;-56
2023/10/30 22:30:42;;;;;;;;;;;;;;;21.55;44.15;94101.59;10478057;28;2600;-56
2023/10/30 22:35:42;;;;;;;;;;;;;;;21.50;44.10;94117.56;10472694;28;2593;-57
2023/10/30 22:40:43;;;;;;;;;;;;;;;21.49;44.24;94137.13;10473134;28;2590;-57
2023/10/30 22:45:43;;;;;;;;;;;;;;;21.44;44.40;94135.44;10472823;28;2579;-56
2023/10/30 22:50:43;;;;;;;;;;;;;;;21.42;44.28;94136.84;10482807;28;2689;-57
2023/10/30 22:55:45;;;;;;;;;;;;;;;21.36;44.75;94130.97;10484446;28;2678;-57
2023/10/30 23:00:46;;;;;;;;;;;;;;;21.34;44.71;94122.63;10475496;28;2607;-56
2023/10/30 23:05:47;;;;;;;;;;;;;;;21.32;44.74;94132.69;10492704;28;2694;-57
2023/10/30 23:10:47;;;;;;;;;;;;;;;21.32;44.31;94142.47;10472823;28;5091;-56
2023/10/30 23:15:47;;;;;;;;;;;;;;;21.31;44.80;94148.84;10459948;28;2551;-58
2023/10/30 23:20:49;;;;;;;;;;;;;;;21.27;45.06;94155.81;10475322;28;2627;-57
2023/10/30 23:25:50;;;;;;;;;;;;;;;21.26;44.82;94164.81;10479613;28;2567;-57
2023/10/30 23:30:50;;;;;;;;;;;;;;;21.26;44.49;94170.09;10489080;28;2612;-57
2023/10/30 23:35:50;;;;;;;;;;;;;;;21.24;44.49;94164.34;10483671;28;2580;-57
2023/10/30 23:40:51;;;;;;;;;;;;;;;21.22;44.61;94169.16;10496172;28;2587;-57
2023/10/30 23:45:51;;;;;;;;;;;;;;;21.21;44.60;94186.06;10482734;28;2967;-57
2023/10/30 23:50:51;;;;;;;;;;;;;;;21.18;44.26;94184.06;10467051;28;2646;-57
2023/10/30 23:55:52;;;;;;;;;;;;;;;21.16;44.39;94191.50;10475315;28;2621;-58
